Time;durP1;ratioP1;P1;durP2;ratioP2;P2;SDS_P1;SDS_P2;PMS_P1;PMS_P2;Temp;Humidity;BMP_temperature;BMP_pressure;BME280_temperature;BME280_humidity;BME280_pressure;Samples;Min_cycle;Max_cycle;Signal;HPM_P1;HPM_P2
2023/01/30 00:01:27;;;;;;;15.30;11.07;;;;;;;1.26;87.92;100603.09;5062252;28;20072;-60
2023/01/30 00:03:54;;;;;;;17.27;11.05;;;;;;;1.20;87.92;100599.75;5064380;28;20113;-61
2023/01/30 00:06:22;;;;;;;14.25;10.95;;;;;;;1.22;87.60;100590.22;5063762;28;20139;-61
2023/01/30 00:08:50;;;;;;;16.40;11.07;;;;;;;1.25;87.81;100598.78;5060311;28;20156;-60
2023/01/30 00:11:18;;;;;;;19.10;11.25;;;;;;;1.25;87.54;100559.00;5058540;28;20722;-61
2023/01/30 00:13:47;;;;;;;17.23;11.90;;;;;;;1.26;87.57;100560.72;5060090;28;20525;-60
2023/01/30 00:16:15;;;;;;;17.10;12.00;;;;;;;1.29;87.69;100550.28;5055931;28;20068;-59
2023/01/30 00:18:43;;;;;;;15.55;11.52;;;;;;;1.31;88.33;100539.91;5051133;28;20143;-59
2023/01/30 00:21:13;;;;;;;15.80;12.18;;;;;;;1.34;88.07;100535.47;5054964;28;20079;-58
2023/01/30 00:23:40;;;;;;;18.23;12.20;;;;;;;1.33;87.89;100530.34;5054588;28;20060;-59
2023/01/30 00:26:08;;;;;;;16.42;12.30;;;;;;;1.29;87.43;100539.91;5058496;28;20067;-59
2023/01/30 00:28:36;;;;;;;19.75;13.30;;;;;;;1.37;87.72;100512.06;5050204;28;20056;-57
2023/01/30 00:31:03;;;;;;;17.38;12.43;;;;;;;1.37;87.09;100516.41;5056879;28;20054;-57
2023/01/30 00:33:31;;;;;;;17.55;11.88;;;;;;;1.32;87.49;100500.97;5058259;28;20051;-58
2023/01/30 00:36:00;;;;;;;17.63;12.27;;;;;;;1.29;87.75;100480.28;5058154;28;20159;-58
2023/01/30 00:38:27;;;;;;;17.67;12.50;;;;;;;1.31;87.81;100473.31;5056331;28;20071;-59
2023/01/30 00:40:55;;;;;;;21.25;13.68;;;;;;;1.30;87.63;100463.81;5061771;28;20422;-57
2023/01/30 00:47:04;;;;;;;17.73;12.48;;;;;;;1.29;87.43;100437.94;5058528;28;20049;-59
2023/01/30 00:49:17;;;;;;;19.00;13.55;;;;;;;1.22;87.51;100426.88;5054818;28;20058;-57
2023/01/30 00:51:45;;;;;;;23.80;13.95;;;;;;;1.23;87.48;100394.84;5060180;28;20087;-60
2023/01/30 00:54:12;;;;;;;18.88;12.73;;;;;;;1.27;87.67;100401.66;5059719;28;20223;-58
2023/01/30 00:56:39;;;;;;;20.23;13.50;;;;;;;1.29;87.53;100397.28;5058372;28;20098;-60
2023/01/30 00:59:06;;;;;;;20.42;14.23;;;;;;;1.33;87.29;100382.50;5058621;28;20110;-58
2023/01/30 01:01:33;;;;;;;22.10;14.25;;;;;;;1.26;87.05;100395.63;5057891;28;20052;-58
2023/01/30 01:04:01;;;;;;;20.55;14.05;;;;;;;1.21;87.16;100386.25;5062018;28;20171;-60
2023/01/30 01:06:28;;;;;;;18.60;13.30;;;;;;;1.20;87.60;100387.97;5060133;28;20056;-59
2023/01/30 01:08:55;;;;;;;18.00;12.40;;;;;;;1.20;87.42;100394.91;5057514;28;20147;-58
2023/01/30 01:11:25;;;;;;;21.08;14.50;;;;;;;1.22;87.75;100386.22;5053419;28;20175;-59
2023/01/30 01:13:55;;;;;;;21.38;14.40;;;;;;;1.23;87.46;100384.47;5049500;28;20080;-60
2023/01/30 01:16:23;;;;;;;21.45;14.10;;;;;;;1.20;87.50;100376.75;5048805;28;20106;-60
2023/01/30 01:18:51;;;;;;;19.55;14.38;;;;;;;1.20;87.67;100363.81;5050245;28;20191;-60
2023/01/30 01:21:19;;;;;;;18.70;13.40;;;;;;;1.19;87.34;100331.84;5050212;28;20133;-57
2023/01/30 01:23:54;;;;;;;20.58;14.85;;;;;;;1.11;87.27;100305.25;5053782;28;20544;-60
2023/01/30 01:26:24;;;;;;;22.30;16.33;;;;;;;1.11;87.48;100310.44;5048234;28;20092;-59
2023/01/30 01:28:57;;;;;;;20.77;14.43;;;;;;;1.09;87.62;100317.41;5056711;28;20052;-61
2023/01/30 01:31:25;;;;;;;22.63;14.45;;;;;;;1.14;87.52;100307.78;5051892;28;20159;-59
2023/01/30 01:33:52;;;;;;;20.92;14.93;;;;;;;1.13;87.26;100295.72;5053941;28;20062;-60
2023/01/30 01:36:19;;;;;;;21.10;15.00;;;;;;;1.07;87.37;100305.38;5060694;28;20062;-60
2023/01/30 01:39:07;;;;;;;21.98;15.07;;;;;;;1.04;87.95;100297.66;5059014;28;20167;-60
2023/01/30 01:41:34;;;;;;;21.58;15.32;;;;;;;1.02;87.77;100297.72;5057701;28;20171;-59
2023/01/30 01:44:04;;;;;;;22.38;16.42;;;;;;;1.05;88.02;100320.13;5062294;28;20647;-58
2023/01/30 01:46:35;;;;;;;20.30;14.85;;;;;;;1.00;88.13;100326.25;5062741;28;20052;-58
2023/01/30 01:49:06;;;;;;;23.85;16.10;;;;;;;1.02;88.64;100334.00;5061694;28;20059;-59
2023/01/30 01:51:40;;;;;;;21.58;15.45;;;;;;;1.08;88.54;100323.50;5064404;28;20084;-57
2023/01/30 01:54:13;;;;;;;25.42;16.25;;;;;;;1.10;87.88;100326.03;5065807;28;20140;-61
2023/01/30 01:56:42;;;;;;;22.45;16.30;;;;;;;1.09;87.98;100313.97;5063119;28;20048;-59
2023/01/30 01:59:19;;;;;;;20.30;14.77;;;;;;;1.15;87.80;100314.66;5060155;28;20056;-60
2023/01/30 02:01:47;;;;;;;25.10;16.77;;;;;;;1.10;87.96;100292.34;5065511;28;20151;-58
2023/01/30 02:05:00;;;;;;;20.60;14.55;;;;;;;1.10;88.06;100282.81;5064887;28;20052;-61
2023/01/30 02:07:02;;;;;;;22.75;15.13;;;;;;;1.07;88.79;100264.72;5064483;28;20141;-59
2023/01/30 02:09:29;;;;;;;24.65;17.15;;;;;;;1.02;89.91;100251.03;5061230;28;20156;-59
2023/01/30 02:11:58;;;;;;;22.13;15.13;;;;;;;1.04;90.25;100227.66;5061427;28;20084;-60
2023/01/30 02:14:25;;;;;;;27.95;18.25;;;;;;;1.00;91.12;100240.72;5058503;28;20250;-59
2023/01/30 02:16:52;;;;;;;23.85;17.10;;;;;;;1.02;91.52;100225.13;5060391;28;20055;-58
2023/01/30 02:19:48;;;;;;;23.17;16.20;;;;;;;1.02;92.36;100235.50;5065237;28;20458;-59
2023/01/30 02:22:43;;;;;;;25.50;17.83;;;;;;;1.00;92.64;100217.41;5064728;28;20080;-58
2023/01/30 02:25:32;;;;;;;28.23;16.48;;;;;;;1.01;93.63;100213.06;5067585;28;20056;-60
2023/01/30 02:28:24;;;;;;;24.35;17.45;;;;;;;0.99;93.97;100186.31;5059686;28;20139;-59
2023/01/30 02:31:03;;;;;;;25.45;16.45;;;;;;;0.99;94.33;100202.75;5064454;28;20515;-60
2023/01/30 02:34:21;;;;;;;22.33;15.98;;;;;;;0.99;94.79;100188.91;5063840;28;20124;-59
2023/01/30 02:36:53;;;;;;;24.55;17.52;;;;;;;1.00;94.73;100182.88;4982068;28;20089;-59
2023/01/30 02:39:48;;;;;;;26.67;17.15;;;;;;;0.99;95.28;100189.78;4965267;28;20134;-59
2023/01/30 02:42:31;;;;;;;25.90;17.95;;;;;;;1.05;94.95;100175.81;5048548;28;20071;-59
2023/01/30 02:45:08;;;;;;;27.70;17.60;;;;;;;1.05;94.75;100174.97;5078668;28;20115;-59
2023/01/30 02:47:41;;;;;;;23.85;16.65;;;;;;;1.07;95.45;100166.22;5061704;28;20991;-60
2023/01/30 02:50:33;;;;;;;25.92;18.27;;;;;;;1.08;96.26;100169.66;5063155;28;20075;-61
2023/01/30 02:53:01;;;;;;;25.73;18.52;;;;;;;0.97;98.35;100160.44;5060532;28;20049;-60
2023/01/30 02:55:28;;;;;;;32.30;20.48;;;;;;;0.93;99.57;100130.31;5058936;28;20045;-60
2023/01/30 02:57:55;;;;;;;29.75;19.65;;;;;;;0.92;100.00;100136.41;5063406;28;20045;-59
2023/01/30 03:01:02;;;;;;;26.38;18.90;;;;;;;0.89;100.00;100126.13;5061961;28;20132;-60
2023/01/30 03:03:47;;;;;;;28.42;19.83;;;;;;;0.90;100.00;100117.47;5064003;28;20131;-57
2023/01/30 03:06:33;;;;;;;31.05;20.35;;;;;;;0.90;100.00;100117.47;5066126;28;20051;-60
2023/01/30 03:09:13;;;;;;;28.92;20.15;;;;;;;0.92;100.00;100107.06;5055781;28;20143;-57
2023/01/30 03:11:44;;;;;;;26.35;18.75;;;;;;;0.85;100.00;100106.34;5065035;28;20060;-59
2023/01/30 03:14:23;;;;;;;29.08;19.10;;;;;;;0.86;100.00;100100.31;5045466;28;20131;-58
2023/01/30 03:16:52;;;;;;;26.63;18.13;;;;;;;0.88;100.00;100097.66;5065990;28;20044;-59
2023/01/30 03:19:19;;;;;;;30.55;19.15;;;;;;;0.94;100.00;100089.72;5062628;28;20062;-59
2023/01/30 03:21:46;;;;;;;32.63;19.83;;;;;;;0.94;100.00;100095.72;5052665;28;20043;-59
2023/01/30 03:24:14;;;;;;;32.47;20.58;;;;;;;0.95;100.00;100078.47;5053813;28;20711;-58
2023/01/30 03:26:50;;;;;;;29.42;19.80;;;;;;;0.98;100.00;100086.13;5055954;28;21829;-58
2023/01/30 03:29:17;;;;;;;26.08;18.52;;;;;;;1.01;100.00;100081.72;5051273;28;20135;-59
2023/01/30 03:31:45;;;;;;;34.72;20.42;;;;;;;1.07;100.00;100083.28;5056746;28;20071;-59
2023/01/30 03:34:12;;;;;;;26.17;18.75;;;;;;;1.04;100.00;100073.03;5051722;28;20467;-58
2023/01/30 03:36:39;;;;;;;27.23;19.65;;;;;;;1.02;100.00;100061.84;5060805;28;20098;-58
2023/01/30 03:39:07;;;;;;;28.98;19.08;;;;;;;1.01;100.00;100066.16;5053667;28;20060;-59
2023/01/30 03:41:34;;;;;;;32.80;19.73;;;;;;;0.98;100.00;100066.25;5057479;28;20066;-58
2023/01/30 03:44:01;;;;;;;31.13;20.30;;;;;;;0.99;100.00;100060.19;5057955;28;20559;-59
2023/01/30 03:46:28;;;;;;;28.63;19.00;;;;;;;1.12;100.00;100059.81;5062742;28;20056;-60
2023/01/30 03:48:56;;;;;;;30.95;19.40;;;;;;;1.08;100.00;100050.44;5057023;28;20767;-56
2023/01/30 03:51:23;;;;;;;25.83;18.23;;;;;;;1.10;100.00;100056.44;5056625;28;20868;-57
2023/01/30 03:53:50;;;;;;;31.45;18.92;;;;;;;1.11;100.00;100043.41;5059198;28;20642;-56
2023/01/30 03:56:17;;;;;;;30.40;20.65;;;;;;;1.15;100.00;100028.63;5062215;28;20056;-63
2023/01/30 03:58:44;;;;;;;27.73;18.92;;;;;;;1.12;100.00;100023.53;5060162;28;20889;-57
2023/01/30 04:01:11;;;;;;;31.75;20.15;;;;;;;1.13;100.00;100025.25;5060248;28;20045;-57
2023/01/30 04:03:38;;;;;;;30.15;19.33;;;;;;;1.16;100.00;100019.94;5058445;28;20064;-58
2023/01/30 04:06:06;;;;;;;32.90;19.75;;;;;;;1.21;100.00;100008.53;5057051;28;20512;-57
2023/01/30 04:08:33;;;;;;;28.73;18.77;;;;;;;1.22;100.00;99997.28;5056738;28;20058;-58
2023/01/30 04:11:00;;;;;;;24.45;17.42;;;;;;;1.30;100.00;99996.19;5062200;28;20135;-59
2023/01/30 04:13:27;;;;;;;26.13;17.67;;;;;;;1.30;100.00;99993.59;5057960;28;20143;-58
2023/01/30 04:16:33;;;;;;;26.77;17.25;;;;;;;1.30;100.00;99986.66;5063428;28;20135;-58
2023/01/30 04:19:00;;;;;;;26.20;18.65;;;;;;;1.30;100.00;99972.84;4999570;28;20068;-56
2023/01/30 04:21:27;;;;;;;26.63;17.45;;;;;;;1.33;100.00;99983.16;5001982;28;20667;-57
2023/01/30 04:23:55;;;;;;;24.25;16.67;;;;;;;1.36;100.00;99973.53;5022836;28;20055;-57
2023/01/30 04:26:22;;;;;;;29.42;19.17;;;;;;;1.41;100.00;99988.94;5061724;28;20048;-58
2023/01/30 04:28:49;;;;;;;30.20;18.92;;;;;;;1.42;100.00;99977.66;5062235;28;20053;-57
2023/01/30 04:31:17;;;;;;;25.13;17.67;;;;;;;1.45;100.00;99975.00;5064818;28;20048;-59
2023/01/30 04:33:44;;;;;;;28.10;18.05;;;;;;;1.45;100.00;99967.22;5063072;28;20060;-59
2023/01/30 04:36:12;;;;;;;27.45;17.70;;;;;;;1.46;100.00;99964.56;5061854;28;20055;-59
2023/01/30 04:38:40;;;;;;;27.05;17.92;;;;;;;1.58;100.00;99965.91;5060146;28;20080;-59
2023/01/30 04:41:07;;;;;;;31.98;18.98;;;;;;;1.57;100.00;99963.34;5062862;28;20159;-58
2023/01/30 04:43:34;;;;;;;25.75;17.90;;;;;;;1.56;100.00;99970.28;5063895;28;20070;-60
2023/01/30 04:46:02;;;;;;;25.80;17.33;;;;;;;1.59;100.00;99977.13;5064581;28;20049;-61
2023/01/30 04:48:29;;;;;;;26.77;16.90;;;;;;;1.65;100.00;99963.94;5061129;28;20523;-60
2023/01/30 04:50:57;;;;;;;24.38;16.75;;;;;;;1.61;100.00;99963.19;5058150;28;20056;-59
2023/01/30 04:53:24;;;;;;;29.90;17.17;;;;;;;1.64;100.00;99955.31;5053258;28;20766;-59
2023/01/30 04:55:51;;;;;;;26.40;17.02;;;;;;;1.63;100.00;99939.81;5057707;28;20127;-60
2023/01/30 04:58:18;;;;;;;23.75;16.40;;;;;;;1.64;100.00;99947.53;5057149;28;20052;-56
2023/01/30 05:00:46;;;;;;;25.25;16.70;;;;;;;1.66;100.00;99942.28;5053804;28;20050;-59
2023/01/30 05:03:14;;;;;;;24.63;18.13;;;;;;;1.71;100.00;99928.28;5051249;28;20084;-59
2023/01/30 05:05:41;;;;;;;25.17;16.83;;;;;;;1.73;100.00;99938.59;5059107;28;20509;-60
2023/01/30 05:08:08;;;;;;;26.58;17.05;;;;;;;1.73;100.00;99943.78;5058681;28;20079;-59
2023/01/30 05:10:35;;;;;;;26.77;17.90;;;;;;;1.68;100.00;99917.16;5062048;28;20286;-59
2023/01/30 05:13:04;;;;;;;27.73;19.73;;;;;;;1.65;100.00;99927.63;5060730;28;20048;-60
2023/01/30 05:15:31;;;;;;;26.95;18.70;;;;;;;1.69;100.00;99926.63;5061281;28;20131;-59
2023/01/30 05:17:59;;;;;;;27.00;18.60;;;;;;;1.69;100.00;99921.44;5059832;28;20576;-57
2023/01/30 05:20:27;;;;;;;28.42;19.58;;;;;;;1.71;100.00;99914.44;5060549;28;20074;-60
2023/01/30 05:22:56;;;;;;;28.63;19.15;;;;;;;1.62;100.00;99923.41;5045227;28;20052;-59
2023/01/30 05:25:23;;;;;;;30.85;19.38;;;;;;;1.59;100.00;99907.09;5062300;28;20087;-59
2023/01/30 05:27:51;;;;;;;31.52;20.15;;;;;;;1.51;100.00;99910.78;5061506;28;20053;-59
2023/01/30 05:30:18;;;;;;;28.75;19.10;;;;;;;1.55;100.00;99905.50;5058676;28;20055;-57
2023/01/30 05:32:45;;;;;;;31.08;20.13;;;;;;;1.54;100.00;99896.03;5052012;28;20634;-60
2023/01/30 05:35:13;;;;;;;31.00;19.40;;;;;;;1.55;100.00;99889.94;5058363;28;20128;-59
2023/01/30 05:37:40;;;;;;;31.15;19.27;;;;;;;1.56;100.00;99881.25;5063422;28;20495;-56
2023/01/30 05:40:07;;;;;;;29.42;19.17;;;;;;;1.56;100.00;99892.47;5062784;28;20205;-60
2023/01/30 05:42:35;;;;;;;26.65;18.23;;;;;;;1.62;100.00;99865.47;5061756;28;20058;-62
2023/01/30 05:45:02;;;;;;;32.28;19.15;;;;;;;1.50;100.00;99870.19;5062324;28;20501;-57
2023/01/30 05:47:29;;;;;;;26.50;18.05;;;;;;;1.50;100.00;99871.94;5061235;28;20095;-59
2023/01/30 05:49:56;;;;;;;28.80;20.45;;;;;;;1.52;100.00;99868.38;5055114;28;20259;-59
2023/01/30 05:52:23;;;;;;;33.00;20.45;;;;;;;1.52;100.00;99863.19;5061826;28;20629;-59
2023/01/30 05:54:50;;;;;;;33.45;19.60;;;;;;;1.49;100.00;99852.94;5062765;28;20059;-59
2023/01/30 05:57:18;;;;;;;31.88;20.02;;;;;;;1.54;100.00;99836.38;5063409;28;20080;-60
2023/01/30 05:59:45;;;;;;;28.80;18.33;;;;;;;1.52;100.00;99845.03;5062921;28;20139;-59
2023/01/30 06:02:12;;;;;;;29.58;19.67;;;;;;;1.53;100.00;99840.69;5059626;28;20145;-57
2023/01/30 06:04:39;;;;;;;28.25;18.85;;;;;;;1.56;100.00;99839.75;5054945;28;20131;-57
2023/01/30 06:07:06;;;;;;;32.83;20.10;;;;;;;1.56;100.00;99825.03;5050091;28;20063;-61
2023/01/30 06:09:34;;;;;;;29.67;19.05;;;;;;;1.56;100.00;99831.97;5058843;28;20051;-61
2023/01/30 06:12:01;;;;;;;27.10;18.15;;;;;;;1.60;100.00;99829.19;5056758;28;20056;-59
2023/01/30 06:14:28;;;;;;;26.58;17.48;;;;;;;1.57;100.00;99833.63;5059750;28;20053;-60
2023/01/30 06:16:55;;;;;;;33.88;20.73;;;;;;;1.59;100.00;99850.03;5054699;28;20424;-61
2023/01/30 06:19:22;;;;;;;28.65;19.13;;;;;;;1.59;100.00;99830.09;5060291;28;20072;-61
2023/01/30 06:21:50;;;;;;;31.90;19.60;;;;;;;1.61;100.00;99835.22;5058966;28;20056;-60
2023/01/30 06:24:17;;;;;;;34.42;21.42;;;;;;;1.66;100.00;99828.13;5054925;28;20090;-62
2023/01/30 06:26:44;;;;;;;28.58;18.83;;;;;;;1.67;100.00;99835.03;5062924;28;20064;-60
2023/01/30 06:29:12;;;;;;;31.45;19.23;;;;;;;1.73;100.00;99837.41;5063381;28;20056;-60
2023/01/30 06:31:39;;;;;;;31.20;20.27;;;;;;;1.77;100.00;99824.28;5063807;28;20147;-60
2023/01/30 06:34:06;;;;;;;27.52;17.77;;;;;;;1.78;100.00;99848.47;5064635;28;20639;-59
2023/01/30 06:36:33;;;;;;;29.42;18.80;;;;;;;1.79;100.00;99829.41;5062497;28;20109;-59
2023/01/30 06:39:00;;;;;;;30.73;19.13;;;;;;;1.81;100.00;99826.75;5062652;28;20064;-58
2023/01/30 06:41:27;;;;;;;26.95;18.50;;;;;;;1.86;100.00;99827.44;5062129;28;20057;-62
2023/01/30 06:43:54;;;;;;;28.33;18.27;;;;;;;1.92;100.00;99835.84;5060458;28;20541;-58
2023/01/30 06:46:21;;;;;;;26.63;18.17;;;;;;;1.98;100.00;99830.44;5059558;28;20080;-60
2023/01/30 06:48:49;;;;;;;27.88;18.20;;;;;;;2.03;100.00;99831.13;5057368;28;20056;-61
2023/01/30 06:51:16;;;;;;;31.02;17.67;;;;;;;2.04;100.00;99831.97;5058974;28;20531;-60
2023/01/30 06:53:43;;;;;;;27.55;18.05;;;;;;;2.01;100.00;99825.13;5052364;28;20088;-62
2023/01/30 06:56:10;;;;;;;27.42;17.30;;;;;;;2.09;100.00;99813.63;5059233;28;20045;-58
2023/01/30 06:58:37;;;;;;;25.23;17.45;;;;;;;2.10;100.00;99815.31;5057683;28;20040;-60
2023/01/30 07:01:05;;;;;;;24.13;16.67;;;;;;;2.16;100.00;99820.25;5062880;28;20048;-58
2023/01/30 07:03:32;;;;;;;24.70;16.10;;;;;;;2.20;100.00;99806.25;5058493;28;20048;-66
2023/01/30 07:05:59;;;;;;;23.63;16.15;;;;;;;2.24;100.00;99795.69;5056768;28;20230;-59
2023/01/30 07:08:27;;;;;;;26.13;16.17;;;;;;;2.31;100.00;99809.31;5059242;28;20064;-58
2023/01/30 07:10:54;;;;;;;23.33;16.83;;;;;;;2.32;100.00;99786.78;5062115;28;20129;-60
2023/01/30 07:13:21;;;;;;;23.52;15.52;;;;;;;2.40;100.00;99792.53;5055421;28;20752;-60
2023/01/30 07:15:49;;;;;;;21.08;14.43;;;;;;;2.46;100.00;99795.72;5058703;28;20045;-61
2023/01/30 07:18:17;;;;;;;19.42;13.55;;;;;;;2.50;100.00;99788.66;5059829;28;20048;-61
2023/01/30 07:20:47;;;;;;;19.70;13.10;;;;;;;2.58;100.00;99776.22;5059102;28;20068;-60
2023/01/30 07:23:15;;;;;;;22.08;13.98;;;;;;;2.63;100.00;99791.63;5057257;28;20055;-61
2023/01/30 07:25:42;;;;;;;18.13;12.27;;;;;;;2.65;100.00;99788.03;5057110;28;20076;-60
2023/01/30 07:28:10;;;;;;;21.02;13.18;;;;;;;2.67;100.00;99799.25;5052867;28;20066;-60
2023/01/30 07:30:37;;;;;;;19.58;12.85;;;;;;;2.79;100.00;99783.16;5059773;28;20083;-60
2023/01/30 07:33:05;;;;;;;18.23;12.55;;;;;;;2.80;100.00;99776.22;5055632;28;20109;-60
2023/01/30 07:35:35;;;;;;;18.17;12.13;;;;;;;2.82;100.00;99786.53;5062510;28;20044;-58
2023/01/30 07:38:03;;;;;;;17.05;12.43;;;;;;;2.85;100.00;99774.28;5060482;28;20148;-58
2023/01/30 07:40:30;;;;;;;16.23;11.65;;;;;;;2.88;100.00;99783.69;5064894;28;20151;-59
2023/01/30 07:43:01;;;;;;;17.73;11.68;;;;;;;2.91;100.00;99781.81;5054307;28;20152;-58
2023/01/30 07:45:45;;;;;;;16.38;11.18;;;;;;;2.97;100.00;99785.91;5061511;28;20128;-59
2023/01/30 07:48:15;;;;;;;15.98;10.65;;;;;;;3.03;100.00;99790.88;5064397;28;20045;-58
2023/01/30 07:50:42;;;;;;;17.25;11.55;;;;;;;3.03;100.00;99791.72;5062210;28;20032;-59
2023/01/30 07:53:12;;;;;;;17.00;10.77;;;;;;;3.08;100.00;99819.28;5062121;28;20576;-60
2023/01/30 07:55:40;;;;;;;14.23;10.05;;;;;;;3.11;100.00;99799.19;5064474;28;20132;-59
2023/01/30 07:58:10;;;;;;;13.23;9.68;;;;;;;3.18;100.00;99810.19;5060318;28;20401;-57
2023/01/30 08:00:38;;;;;;;14.70;9.55;;;;;;;3.22;100.00;99801.34;5062171;28;20072;-58
2023/01/30 08:03:05;;;;;;;12.65;9.02;;;;;;;3.25;100.00;99809.03;5065514;28;20143;-61
2023/01/30 08:05:32;;;;;;;12.75;8.98;;;;;;;3.31;100.00;99813.97;5063335;28;20060;-60
2023/01/30 08:07:59;;;;;;;11.63;7.50;;;;;;;3.35;100.00;99817.28;5061031;28;20161;-61
2023/01/30 08:10:27;;;;;;;10.88;8.00;;;;;;;3.41;100.00;99814.41;5066129;28;20056;-61
2023/01/30 08:12:54;;;;;;;12.07;8.48;;;;;;;3.38;100.00;99836.22;5063224;28;20064;-61
2023/01/30 08:15:21;;;;;;;8.77;6.95;;;;;;;3.38;100.00;99804.13;5063873;28;20052;-55
2023/01/30 08:17:56;;;;;;;12.98;8.65;;;;;;;3.39;100.00;99785.03;5063525;28;20144;-60
2023/01/30 08:20:25;;;;;;;9.35;7.78;;;;;;;3.36;100.00;99795.56;5059112;28;20044;-58
2023/01/30 08:22:53;;;;;;;10.52;7.38;;;;;;;3.38;100.00;99793.72;5062812;28;20142;-60
2023/01/30 08:25:20;;;;;;;10.30;7.70;;;;;;;3.46;100.00;99789.88;5064686;28;20405;-60
2023/01/30 08:27:48;;;;;;;10.07;7.43;;;;;;;3.45;100.00;99787.34;5061168;28;20061;-60
2023/01/30 08:30:15;;;;;;;10.80;7.60;;;;;;;3.45;100.00;99827.22;5062814;28;20051;-60
2023/01/30 08:32:44;;;;;;;9.80;7.38;;;;;;;3.51;100.00;99792.28;5063399;28;20062;-61
2023/01/30 08:35:12;;;;;;;9.98;6.95;;;;;;;3.52;100.00;99754.97;5063253;28;20067;-58
2023/01/30 08:37:40;;;;;;;9.95;7.65;;;;;;;3.57;100.00;99773.81;5063382;28;20536;-60
2023/01/30 08:40:08;;;;;;;8.85;6.63;;;;;;;3.65;100.00;99781.28;5059825;28;20136;-60
2023/01/30 08:42:35;;;;;;;8.75;6.47;;;;;;;3.67;100.00;99793.31;5064443;28;20048;-60
2023/01/30 08:45:03;;;;;;;10.90;7.22;;;;;;;3.63;100.00;99796.97;5065195;28;20589;-59
2023/01/30 08:47:30;;;;;;;9.18;6.95;;;;;;;3.66;100.00;99790.78;5065437;28;20118;-61
2023/01/30 08:49:57;;;;;;;8.95;5.80;;;;;;;3.64;100.00;99797.81;5056724;28;20079;-60
2023/01/30 08:52:25;;;;;;;8.73;5.85;;;;;;;3.67;100.00;99787.28;5062651;28;20139;-60
2023/01/30 08:54:52;;;;;;;7.20;5.60;;;;;;;3.72;100.00;99787.91;5061322;28;20574;-58
2023/01/30 08:57:19;;;;;;;11.55;5.70;;;;;;;3.73;100.00;99782.63;5060830;28;20076;-63
2023/01/30 08:59:46;;;;;;;7.63;5.47;;;;;;;3.76;100.00;99792.06;5059948;28;20052;-58
2023/01/30 09:02:14;;;;;;;7.70;5.25;;;;;;;3.82;100.00;99781.38;5062191;28;20688;-57
2023/01/30 09:04:41;;;;;;;7.82;4.93;;;;;;;3.83;100.00;99790.03;5063778;28;20051;-60
2023/01/30 09:07:08;;;;;;;8.93;4.95;;;;;;;3.84;100.00;99791.75;5062047;28;20139;-62
2023/01/30 09:09:35;;;;;;;10.07;5.45;;;;;;;3.96;100.00;99779.03;5062522;28;20079;-60
2023/01/30 09:12:02;;;;;;;7.78;4.63;;;;;;;3.95;100.00;99773.88;5061568;28;20062;-62
2023/01/30 09:14:30;;;;;;;8.57;4.90;;;;;;;3.97;100.00;99785.91;5059097;28;20130;-62
2023/01/30 09:16:57;;;;;;;7.32;5.18;;;;;;;3.99;100.00;99788.44;5058663;28;20049;-60
2023/01/30 09:19:26;;;;;;;7.07;4.38;;;;;;;4.01;100.00;99789.22;5061708;28;20060;-59
2023/01/30 09:21:54;;;;;;;8.40;5.38;;;;;;;4.02;100.00;99804.78;5060942;28;20600;-60
2023/01/30 09:24:26;;;;;;;8.88;4.50;;;;;;;4.03;100.00;99790.84;5061895;28;20055;-60
2023/01/30 09:26:56;;;;;;;7.78;4.57;;;;;;;4.03;100.00;99798.66;5063037;28;20604;-58
2023/01/30 09:29:26;;;;;;;8.65;4.57;;;;;;;4.04;100.00;99796.88;5062906;28;20040;-60
2023/01/30 09:31:58;;;;;;;7.20;4.35;;;;;;;4.07;100.00;99792.38;5062898;28;20127;-58
2023/01/30 09:34:28;;;;;;;8.73;4.10;;;;;;;4.04;100.00;99789.91;5063068;28;20147;-59
2023/01/30 09:36:59;;;;;;;7.15;4.00;;;;;;;4.10;100.00;99800.97;5058582;28;20131;-59
2023/01/30 09:39:28;;;;;;;7.10;3.70;;;;;;;4.20;100.00;99802.25;5062368;28;20061;-58
2023/01/30 09:42:04;;;;;;;8.70;3.40;;;;;;;4.17;100.00;99792.81;5063762;28;20128;-59
2023/01/30 09:44:52;;;;;;;7.88;3.45;;;;;;;4.17;100.00;99802.38;5062235;28;20052;-60
2023/01/30 09:47:31;;;;;;;15.48;4.18;;;;;;;4.19;100.00;99797.97;5058800;28;20481;-59
2023/01/30 09:50:22;;;;;;;8.45;3.63;;;;;;;4.26;100.00;99786.34;5064195;28;20080;-59
2023/01/30 09:53:06;;;;;;;12.88;3.38;;;;;;;4.31;100.00;99797.38;5061555;28;20052;-60
2023/01/30 09:55:38;;;;;;;9.07;3.53;;;;;;;4.32;100.00;99792.13;5061999;28;20131;-60
2023/01/30 09:58:05;;;;;;;8.15;3.25;;;;;;;4.38;100.00;99793.59;5049329;28;20049;-60
2023/01/30 10:00:43;;;;;;;7.03;2.53;;;;;;;4.47;100.00;99784.50;5064024;28;20148;-59
2023/01/30 10:03:12;;;;;;;9.98;2.92;;;;;;;4.49;100.00;99785.25;5062528;28;20139;-61
2023/01/30 10:05:47;;;;;;;8.18;2.75;;;;;;;4.51;100.00;99794.69;5062878;28;20079;-59
2023/01/30 10:08:37;;;;;;;8.43;2.92;;;;;;;4.58;100.00;99809.13;5061240;28;20055;-61
2023/01/30 10:11:25;;;;;;;8.55;2.50;;;;;;;4.61;100.00;99776.84;5062888;28;20048;-60
2023/01/30 10:14:26;;;;;;;8.32;1.88;;;;;;;4.68;100.00;99790.44;5064583;28;20499;-60
2023/01/30 10:17:15;;;;;;;11.68;2.50;;;;;;;4.70;100.00;99792.06;5064403;28;20091;-57
2023/01/30 10:19:55;;;;;;;11.77;3.28;;;;;;;4.78;100.00;99781.28;5064870;28;20066;-57
2023/01/30 10:22:29;;;;;;;23.02;2.85;;;;;;;4.80;100.00;99777.66;5063078;28;20124;-56
2023/01/30 10:25:07;;;;;;;17.38;2.55;;;;;;;4.85;100.00;99790.47;5062918;28;20052;-56
2023/01/30 10:27:40;;;;;;;11.90;2.28;;;;;;;4.99;100.00;99789.78;5066506;28;20064;-55
2023/01/30 10:30:13;;;;;;;21.88;3.70;;;;;;;4.91;100.00;99782.38;5063251;28;20147;-59
2023/01/30 10:32:48;;;;;;;10.73;2.88;;;;;;;4.90;99.43;99793.69;5061826;28;20080;-59
2023/01/30 10:35:21;;;;;;;15.60;2.30;;;;;;;4.93;99.08;99787.50;5064078;28;20060;-57
2023/01/30 10:38:05;;;;;;;15.20;3.08;;;;;;;4.97;98.50;99781.22;5056790;28;20146;-57
2023/01/30 10:40:38;;;;;;;16.23;3.60;;;;;;;5.05;97.50;99785.13;5060341;28;20135;-59
2023/01/30 10:43:17;;;;;;;13.90;2.88;;;;;;;5.04;96.73;99774.75;5063322;28;20059;-57
2023/01/30 10:45:56;;;;;;;12.80;2.80;;;;;;;5.02;96.58;99774.00;5060087;28;20065;-57
2023/01/30 10:48:41;;;;;;;16.58;2.83;;;;;;;4.97;94.27;99769.00;5063896;28;20135;-57
2023/01/30 10:51:37;;;;;;;15.73;3.00;;;;;;;5.00;95.00;99787.13;5059450;28;20060;-58
2023/01/30 10:54:12;;;;;;;15.05;2.45;;;;;;;5.00;93.13;99776.69;5065524;28;20056;-58
2023/01/30 10:57:02;;;;;;;14.38;2.83;;;;;;;5.05;93.04;99772.09;5062323;28;20055;-59
2023/01/30 10:59:44;;;;;;;23.50;3.45;;;;;;;5.07;91.27;99783.28;5064271;28;20048;-60
2023/01/30 11:02:21;;;;;;;14.75;2.97;;;;;;;5.08;89.67;99782.34;5062215;28;20694;-57
2023/01/30 11:04:56;;;;;;;20.02;3.80;;;;;;;5.05;89.73;99772.09;5066916;28;20083;-60
2023/01/30 11:07:24;;;;;;;31.83;4.57;;;;;;;5.05;90.58;99772.09;5064505;28;20555;-59
2023/01/30 11:09:52;;;;;;;25.15;3.60;;;;;;;5.05;90.05;99752.97;5066730;28;20594;-59
2023/01/30 11:12:19;;;;;;;16.75;3.63;;;;;;;5.08;89.33;99738.00;5066441;28;20630;-60
2023/01/30 11:14:51;;;;;;;22.42;4.15;;;;;;;5.08;89.95;99742.38;5066879;28;20080;-59
2023/01/30 11:17:20;;;;;;;24.60;4.28;;;;;;;5.02;89.24;99743.53;5061503;28;20048;-60
2023/01/30 11:19:55;;;;;;;15.70;2.95;;;;;;;5.02;89.19;99727.03;5058775;28;20136;-59
2023/01/30 11:22:25;;;;;;;16.80;3.53;;;;;;;5.07;90.41;99744.16;5065590;28;20090;-56
2023/01/30 11:25:22;;;;;;;20.17;3.72;;;;;;;5.21;89.21;99711.28;5060407;28;20741;-59
2023/01/30 11:27:55;;;;;;;14.55;3.65;;;;;;;5.29;88.23;99716.97;5047792;28;20525;-59
2023/01/30 11:30:27;;;;;;;17.73;3.53;;;;;;;5.29;87.10;99703.91;5060033;28;20083;-58
2023/01/30 11:33:14;;;;;;;16.52;3.58;;;;;;;5.26;86.63;99709.28;5057847;28;20078;-57
2023/01/30 11:35:52;;;;;;;20.27;3.78;;;;;;;5.29;87.26;99690.88;5064586;28;20052;-57
2023/01/30 11:38:31;;;;;;;13.15;3.83;;;;;;;5.26;86.54;99732.78;5063252;28;20106;-59
2023/01/30 11:41:06;;;;;;;19.92;3.20;;;;;;;5.26;87.26;99689.25;5062201;28;20136;-59
2023/01/30 11:43:35;;;;;;;20.85;3.13;;;;;;;5.29;87.38;99688.25;5078248;28;20664;-59